LSZS/SMV METAR and TAF weather

Enter ICAO airport designator
Station Type Date Time Source
LSZS METAR 2019/04/18 15:20 UTC NOAA

LSZS 181520Z 24009KT 9999 SCT050 BKN063 05/M00 Q1025 RMK T


Station Type Date Time Source
LSZS Decoded METAR 2019/04/18 15:20 UTC NOAA

Station name not available
Apr 18, 2019 - 11:20 AM EDT / 2019.04.18 1520 UTC
Wind: from the WSW (240 degrees) at 10 MPH (9 KT):0
Visibility: greater than 7 mile(s):0
Sky conditions: mostly cloudy
Temperature: 41 F (5 C)
Dew Point: 32 F (0 C)
Relative Humidity: 70%
Pressure (altimeter): 30.27 in. Hg (1025 hPa)
ob: LSZS 181520Z 24009KT 9999 SCT050 BKN063 05/M00 Q1025 RMK T
cycle: 15

Station Type Date Time Source
LSZS TAF 2014/12/22 20:03 UTC NOAA

TAF
AMD LSZS 222054Z 2220/2224 CNL

Example: see airport list